Time;durP1;ratioP1;P1;durP2;ratioP2;P2;SDS_P1;SDS_P2;PMS_P1;PMS_P2;Temp;Humidity;BMP_temperature;BMP_pressure;BME280_temperature;BME280_humidity;BME280_pressure;Samples;Min_cycle;Max_cycle;Signal;HPM_P1;HPM_P2
2021/07/09 00:00:57;;;;;;;0.03;0.03;;;14.20;99.90;;;;;;5060527;28;20106;-87
2021/07/09 00:03:22;;;;;;;0.20;0.17;;;14.20;99.90;;;;;;5063766;28;20017;-87
2021/07/09 00:05:48;;;;;;;0.20;0.20;;;14.10;99.90;;;;;;5054665;28;20021;-85
2021/07/09 00:08:14;;;;;;;0.43;0.43;;;14.10;99.90;;;;;;5051862;28;20037;-85
2021/07/09 00:10:40;;;;;;;0.00;0.00;;;14.10;99.90;;;;;;5050942;28;20036;-84
2021/07/09 00:13:06;;;;;;;0.63;0.20;;;14.00;99.90;;;;;;5055851;28;20020;-85
2021/07/09 00:15:33;;;;;;;0.20;0.17;;;13.80;99.90;;;;;;5070117;28;20266;-85
2021/07/09 00:17:59;;;;;;;0.28;0.28;;;13.80;99.90;;;;;;5053512;28;20056;-84
2021/07/09 00:20:25;;;;;;;0.10;0.10;;;13.90;99.90;;;;;;5056823;28;20059;-84
2021/07/09 00:22:50;;;;;;;0.20;0.20;;;13.90;99.90;;;;;;5064536;28;20033;-84
2021/07/09 00:25:17;;;;;;;0.27;0.13;;;13.80;99.90;;;;;;5062175;28;20489;-84
2021/07/09 00:27:43;;;;;;;0.13;0.13;;;13.70;99.90;;;;;;5055907;28;20044;-84
2021/07/09 00:30:10;;;;;;;0.10;0.10;;;13.70;99.90;;;;;;5059785;28;20025;-84
2021/07/09 00:32:36;;;;;;;0.40;0.40;;;13.70;99.90;;;;;;5057216;28;20036;-84
2021/07/09 00:35:02;;;;;;;0.37;0.20;;;13.60;99.90;;;;;;5059276;28;20029;-84
2021/07/09 00:37:28;;;;;;;0.35;0.25;;;13.50;99.90;;;;;;5056878;28;20043;-84
2021/07/09 00:39:53;;;;;;;0.77;0.63;;;13.30;99.90;;;;;;5059444;28;20406;-84
2021/07/09 00:42:19;;;;;;;0.10;0.10;;;13.20;99.90;;;;;;5059549;28;20093;-85
2021/07/09 00:44:45;;;;;;;0.10;0.10;;;13.30;99.90;;;;;;5057258;28;20174;-85
2021/07/09 00:47:11;;;;;;;0.43;0.43;;;13.20;99.90;;;;;;5053018;28;20037;-85
2021/07/09 00:49:36;;;;;;;0.10;0.10;;;13.10;99.90;;;;;;5062754;28;20038;-85
2021/07/09 00:52:03;;;;;;;0.23;0.23;;;13.20;99.90;;;;;;5060231;28;20028;-85
2021/07/09 00:54:29;;;;;;;0.40;0.40;;;13.20;99.90;;;;;;5059933;28;20040;-85
2021/07/09 00:56:55;;;;;;;0.20;0.20;;;13.10;99.90;;;;;;5055403;28;20041;-85
2021/07/09 00:59:24;;;;;;;0.32;0.32;;;13.20;99.90;;;;;;5054278;28;20032;-85
2021/07/09 01:01:53;;;;;;;0.20;0.20;;;13.30;99.90;;;;;;5059464;28;20029;-85
2021/07/09 01:04:22;;;;;;;0.82;0.82;;;13.20;99.90;;;;;;5055984;28;20033;-85
2021/07/09 01:06:48;;;;;;;0.43;0.43;;;13.40;99.90;;;;;;5049809;28;20036;-85
2021/07/09 01:09:15;;;;;;;0.30;0.30;;;13.40;99.90;;;;;;5049867;28;20025;-85
2021/07/09 01:11:42;;;;;;;0.90;0.47;;;13.40;99.90;;;;;;5049858;28;20402;-85
2021/07/09 01:14:08;;;;;;;0.70;0.70;;;13.30;99.90;;;;;;5051076;28;20040;-85
2021/07/09 01:16:35;;;;;;;0.30;0.30;;;13.30;99.90;;;;;;5058673;28;20021;-85
2021/07/09 01:19:01;;;;;;;0.30;0.30;;;13.20;99.90;;;;;;5059478;28;20120;-85
2021/07/09 01:21:27;;;;;;;0.20;0.20;;;13.20;99.90;;;;;;5057559;28;20028;-85
2021/07/09 01:24:01;;;;;;;0.50;0.50;;;13.20;99.90;;;;;;5060989;28;20033;-85
2021/07/09 01:26:27;;;;;;;0.25;0.25;;;13.10;99.90;;;;;;5053506;28;20402;-85
2021/07/09 01:28:53;;;;;;;0.20;0.20;;;13.00;99.90;;;;;;5058463;28;20074;-85
2021/07/09 01:31:19;;;;;;;0.43;0.43;;;13.00;99.90;;;;;;5057562;28;20036;-84
2021/07/09 01:33:45;;;;;;;0.10;0.10;;;13.00;99.90;;;;;;5061036;28;20549;-84
2021/07/09 01:36:10;;;;;;;1.13;1.03;;;13.00;99.90;;;;;;5054764;28;20036;-84
2021/07/09 01:38:36;;;;;;;0.30;0.30;;;12.90;99.90;;;;;;5048666;28;20115;-84
2021/07/09 01:41:03;;;;;;;0.13;0.13;;;12.80;99.90;;;;;;5056385;28;20027;-84
2021/07/09 01:43:29;;;;;;;0.52;0.52;;;12.80;99.90;;;;;;5059528;28;20037;-83
2021/07/09 01:45:55;;;;;;;0.75;0.43;;;12.50;99.90;;;;;;5057771;28;20436;-84
2021/07/09 01:48:21;;;;;;;0.20;0.20;;;12.50;99.90;;;;;;5058563;28;20074;-84
2021/07/09 01:50:47;;;;;;;0.80;0.50;;;12.60;99.90;;;;;;5054550;28;20032;-83
2021/07/09 01:53:13;;;;;;;0.20;0.20;;;12.60;99.90;;;;;;5056578;28;20029;-85
2021/07/09 01:55:39;;;;;;;0.00;0.00;;;12.50;99.90;;;;;;5053710;28;20033;-84
2021/07/09 01:58:05;;;;;;;0.17;0.17;;;12.50;99.90;;;;;;5052706;28;20032;-84
2021/07/09 02:00:31;;;;;;;0.30;0.30;;;12.40;99.90;;;;;;5057654;28;20032;-84
2021/07/09 02:02:57;;;;;;;0.30;0.30;;;12.40;99.90;;;;;;5053164;28;20033;-85
2021/07/09 02:05:24;;;;;;;0.10;0.10;;;12.40;99.90;;;;;;5061822;28;20031;-85
2021/07/09 02:07:55;;;;;;;0.40;0.40;;;12.40;99.90;;;;;;5053920;28;20025;-85
2021/07/09 02:10:23;;;;;;;0.10;0.10;;;12.30;99.90;;;;;;5063591;28;20039;-84
2021/07/09 02:12:54;;;;;;;0.00;0.00;;;12.20;99.90;;;;;;5061404;28;20029;-84
2021/07/09 02:15:24;;;;;;;1.75;0.57;;;12.20;99.90;;;;;;5056690;28;20112;-84
2021/07/09 02:17:50;;;;;;;0.17;0.10;;;12.20;99.90;;;;;;5055513;28;20047;-85
2021/07/09 02:20:18;;;;;;;0.38;0.38;;;12.20;99.90;;;;;;5058673;28;20052;-85
2021/07/09 02:22:45;;;;;;;0.20;0.20;;;12.20;99.90;;;;;;5056470;28;20035;-85
2021/07/09 02:25:11;;;;;;;0.10;0.10;;;12.10;99.90;;;;;;5062905;28;20025;-85
2021/07/09 02:27:38;;;;;;;0.22;0.22;;;12.20;99.90;;;;;;5056994;28;20047;-84
2021/07/09 02:30:10;;;;;;;0.10;0.10;;;12.30;99.90;;;;;;5058887;28;20076;-85
2021/07/09 02:32:37;;;;;;;0.10;0.10;;;12.30;99.90;;;;;;5056869;28;20054;-84
2021/07/09 02:35:05;;;;;;;0.15;0.15;;;12.30;99.90;;;;;;5057059;28;20029;-85
2021/07/09 02:37:31;;;;;;;0.20;0.20;;;12.20;99.90;;;;;;5057874;28;20024;-85
2021/07/09 02:39:58;;;;;;;0.20;0.20;;;12.20;99.90;;;;;;5058107;28;20099;-85
2021/07/09 02:42:23;;;;;;;0.50;0.50;;;12.20;99.90;;;;;;5065593;28;20290;-85
2021/07/09 02:44:49;;;;;;;0.00;0.00;;;12.20;99.90;;;;;;5056253;28;20036;-85
2021/07/09 02:47:15;;;;;;;0.30;0.30;;;12.20;99.90;;;;;;5053829;28;20078;-85
2021/07/09 02:49:41;;;;;;;0.38;0.38;;;12.10;99.90;;;;;;5053387;28;20087;-86
2021/07/09 02:52:08;;;;;;;0.00;0.00;;;12.10;99.90;;;;;;5063377;28;20040;-85
2021/07/09 02:54:34;;;;;;;0.10;0.10;;;12.10;99.90;;;;;;5069309;28;20075;-85
2021/07/09 02:57:01;;;;;;;0.00;0.00;;;12.10;99.90;;;;;;5054902;28;20079;-86
2021/07/09 02:59:27;;;;;;;0.10;0.10;;;12.20;99.90;;;;;;5064453;28;20035;-86
2021/07/09 03:01:52;;;;;;;0.20;0.20;;;12.20;99.90;;;;;;5063475;28;20032;-85
2021/07/09 03:04:18;;;;;;;0.53;0.53;;;12.20;99.90;;;;;;5057870;28;20071;-86
2021/07/09 03:06:44;;;;;;;1.70;0.43;;;12.30;99.90;;;;;;5057098;28;20033;-86
2021/07/09 03:09:10;;;;;;;1.15;0.52;;;12.20;99.90;;;;;;5063137;28;20063;-86
2021/07/09 03:11:37;;;;;;;0.10;0.10;;;12.10;99.90;;;;;;5060369;28;20577;-86
2021/07/09 03:14:05;;;;;;;0.43;0.43;;;12.10;99.90;;;;;;5056424;28;20033;-87
2021/07/09 03:16:31;;;;;;;0.10;0.10;;;12.10;99.90;;;;;;5060677;28;20033;-85
2021/07/09 03:18:57;;;;;;;0.10;0.10;;;12.10;99.90;;;;;;5062176;28;20036;-87
2021/07/09 03:21:23;;;;;;;0.40;0.40;;;12.10;99.90;;;;;;5060154;28;20047;-86
2021/07/09 03:23:49;;;;;;;0.20;0.20;;;12.00;99.90;;;;;;5052103;28;20040;-86
2021/07/09 03:26:15;;;;;;;0.20;0.20;;;12.00;99.90;;;;;;5053299;28;20707;-85
2021/07/09 03:28:40;;;;;;;0.25;0.25;;;11.90;99.90;;;;;;5059092;28;20036;-84
2021/07/09 03:31:07;;;;;;;0.37;0.37;;;11.90;99.90;;;;;;5065213;28;20597;-85
2021/07/09 03:33:33;;;;;;;0.17;0.17;;;11.90;99.90;;;;;;5053893;28;20033;-84
2021/07/09 03:35:59;;;;;;;0.20;0.20;;;11.80;99.90;;;;;;5060676;28;20059;-84
2021/07/09 03:38:25;;;;;;;0.20;0.20;;;11.80;99.90;;;;;;5057541;28;20056;-84
2021/07/09 03:40:50;;;;;;;0.03;0.03;;;11.70;1.00;;;;;;5065446;28;20025;-84
2021/07/09 03:43:16;;;;;;;0.10;0.10;;;11.80;1.00;;;;;;5053685;28;20128;-84
2021/07/09 03:45:42;;;;;;;0.60;0.40;;;11.80;1.00;;;;;;5057982;28;20059;-84
2021/07/09 03:48:08;;;;;;;0.20;0.20;;;11.80;1.00;;;;;;5068038;28;20028;-83
2021/07/09 03:50:37;;;;;;;0.20;0.20;;;11.90;1.00;;;;;;5057423;28;20029;-84
2021/07/09 03:53:11;;;;;;;0.20;0.20;;;11.90;1.00;;;;;;5050572;28;20830;-84
2021/07/09 03:55:37;;;;;;;0.10;0.10;;;11.90;1.00;;;;;;5057901;28;20827;-84
2021/07/09 03:58:03;;;;;;;0.10;0.10;;;11.90;1.00;;;;;;5053536;28;20025;-83
2021/07/09 04:00:29;;;;;;;0.10;0.10;;;11.80;23.70;;;;;;5062463;28;20033;-83
2021/07/09 04:02:55;;;;;;;0.20;0.20;;;11.90;60.80;;;;;;5064620;28;20042;-84
2021/07/09 04:05:21;;;;;;;0.20;0.20;;;11.90;88.40;;;;;;5051117;28;20035;-83
2021/07/09 04:07:46;;;;;;;0.20;0.20;;;11.90;99.90;;;;;;5051637;28;20025;-83
2021/07/09 04:10:13;;;;;;;0.10;0.10;;;11.80;99.90;;;;;;5064721;28;20139;-84
2021/07/09 04:12:38;;;;;;;0.00;0.00;;;11.90;6.40;;;;;;5057641;28;20036;-85
2021/07/09 04:15:05;;;;;;;0.13;0.13;;;11.90;99.90;;;;;;5054632;28;20847;-85
2021/07/09 04:17:31;;;;;;;0.10;0.10;;;11.90;99.90;;;;;;5056710;28;20119;-85
2021/07/09 04:19:57;;;;;;;0.23;0.23;;;11.90;99.90;;;;;;5055783;28;20115;-84
2021/07/09 04:22:22;;;;;;;0.13;0.13;;;11.90;1.00;;;;;;5059653;28;20025;-84
2021/07/09 04:24:48;;;;;;;0.13;0.13;;;12.00;9.10;;;;;;5060581;28;20041;-84
2021/07/09 04:27:14;;;;;;;0.10;0.10;;;12.00;97.10;;;;;;5061646;28;20619;-83
2021/07/09 04:29:40;;;;;;;0.13;0.13;;;12.00;99.90;;;;;;5058444;28;20036;-84
2021/07/09 04:32:06;;;;;;;0.32;0.30;;;12.00;99.90;;;;;;5061822;28;20042;-84
2021/07/09 04:34:33;;;;;;;0.05;0.05;;;12.00;99.90;;;;;;5058002;28;20055;-83
2021/07/09 04:37:00;;;;;;;2.72;0.60;;;12.00;99.90;;;;;;5067282;28;20033;-84
2021/07/09 04:39:26;;;;;;;0.13;0.13;;;12.00;99.90;;;;;;5064775;28;20086;-86
2021/07/09 04:41:51;;;;;;;0.25;0.25;;;12.10;99.90;;;;;;5010534;28;1359388;-86
2021/07/09 04:44:17;;;;;;;0.10;0.10;;;12.10;23.00;;;;;;5059625;28;20020;-87
2021/07/09 04:46:43;;;;;;;0.10;0.10;;;12.10;1.00;;;;;;5052980;28;20107;-87
2021/07/09 04:49:10;;;;;;;0.03;0.03;;;12.30;1.00;;;;;;5055583;28;20071;-84
2021/07/09 04:51:36;;;;;;;0.13;0.13;;;12.30;99.90;;;;;;5056874;28;20036;-86
2021/07/09 04:54:02;;;;;;;0.10;0.10;;;12.40;68.50;;;;;;5056527;28;20028;-88
2021/07/09 04:56:27;;;;;;;0.10;0.10;;;12.40;99.90;;;;;;5057079;28;20028;-87
2021/07/09 04:58:53;;;;;;;0.60;0.43;;;12.30;99.90;;;;;;5056511;28;20040;-85
2021/07/09 05:01:19;;;;;;;0.07;0.07;;;12.30;99.90;;;;;;5055961;28;20044;-87
2021/07/09 05:03:45;;;;;;;0.30;0.30;;;12.10;89.60;;;;;;5055173;28;20451;-86
2021/07/09 05:06:11;;;;;;;0.17;0.17;;;12.10;99.90;;;;;;5054459;28;20034;-87
2021/07/09 05:08:36;;;;;;;0.50;0.35;;;12.20;99.90;;;;;;5059333;28;20694;-87
2021/07/09 05:11:03;;;;;;;0.20;0.20;;;12.30;99.90;;;;;;5061440;28;20032;-87
2021/07/09 05:13:30;;;;;;;0.10;0.10;;;12.20;54.40;;;;;;5064861;28;20036;-85
2021/07/09 05:15:55;;;;;;;0.20;0.20;;;12.90;98.50;;;;;;5069993;28;20040;-88
2021/07/09 05:18:21;;;;;;;0.43;0.43;;;12.80;99.90;;;;;;5055631;28;20767;-89
2021/07/09 05:20:47;;;;;;;0.17;0.17;;;12.70;61.10;;;;;;5056392;28;20494;-87
2021/07/09 05:23:13;;;;;;;0.00;0.00;;;13.00;37.10;;;;;;5061182;28;20116;-89
2021/07/09 05:25:38;;;;;;;0.10;0.10;;;13.30;1.00;;;;;;5054063;28;20068;-88
2021/07/09 05:28:06;;;;;;;0.10;0.10;;;13.30;99.90;;;;;;5060612;28;20036;-89
2021/07/09 05:30:33;;;;;;;0.20;0.20;;;13.30;99.90;;;;;;5053325;28;20111;-88
2021/07/09 05:32:59;;;;;;;0.25;0.17;;;13.50;99.90;;;;;;5063560;28;20029;-88
2021/07/09 05:35:24;;;;;;;0.10;0.10;;;13.30;99.90;;;;;;5058170;28;20580;-88
2021/07/09 05:37:50;;;;;;;0.77;0.77;;;14.00;99.90;;;;;;5055595;28;20262;-88
2021/07/09 05:40:16;;;;;;;0.10;0.10;;;14.30;99.90;;;;;;5051182;28;20029;-88
2021/07/09 05:42:43;;;;;;;0.10;0.10;;;14.70;99.90;;;;;;5061481;28;20398;-88
2021/07/09 05:45:09;;;;;;;0.20;0.20;;;14.30;99.90;;;;;;5066902;28;20405;-89
2021/07/09 05:47:35;;;;;;;0.00;0.00;;;14.70;99.90;;;;;;5068256;28;20524;-89
2021/07/09 05:50:01;;;;;;;0.00;0.00;;;14.80;99.90;;;;;;5054738;28;20366;-86
2021/07/09 05:52:27;;;;;;;0.00;0.00;;;15.10;99.90;;;;;;5058003;28;20056;-87
2021/07/09 05:54:52;;;;;;;0.10;0.10;;;14.90;99.90;;;;;;5054559;28;20044;-88
2021/07/09 05:57:18;;;;;;;0.10;0.10;;;14.30;99.90;;;;;;5053605;28;20123;-89
2021/07/09 05:59:44;;;;;;;0.03;0.03;;;15.20;99.90;;;;;;5049501;28;20036;-89
2021/07/09 06:02:10;;;;;;;0.20;0.20;;;15.80;99.90;;;;;;5058733;28;20028;-88
2021/07/09 06:04:35;;;;;;;0.10;0.10;;;17.00;99.90;;;;;;5068092;28;20025;-89
2021/07/09 06:07:01;;;;;;;0.13;0.13;;;17.60;99.90;;;;;;5069151;28;20047;-89
2021/07/09 06:09:29;;;;;;;0.00;0.00;;;19.00;99.90;;;;;;5069417;28;20105;-89
2021/07/09 06:11:55;;;;;;;0.10;0.10;;;21.00;99.90;;;;;;5056459;28;20025;-89
2021/07/09 06:14:20;;;;;;;0.00;0.00;;;22.70;99.90;;;;;;5057426;28;20054;-88
2021/07/09 06:16:47;;;;;;;0.23;0.23;;;21.80;99.90;;;;;;5069332;28;20395;-89
2021/07/09 06:19:13;;;;;;;0.00;0.00;;;21.90;99.90;;;;;;5069338;28;20049;-89
2021/07/09 06:21:39;;;;;;;;;;;21.50;99.90;;;;;;5068414;28;20037;-89
2021/07/09 06:24:05;;;;;;;1.25;0.28;;;21.20;99.90;;;;;;5062491;28;19911;-89
2021/07/09 06:26:31;;;;;;;0.00;0.00;;;20.80;99.90;;;;;;5069034;28;20024;-90
2021/07/09 06:28:56;;;;;;;0.00;0.00;;;21.20;99.90;;;;;;5069379;28;20517;-90
2021/07/09 06:31:23;;;;;;;0.15;0.13;;;21.70;99.90;;;;;;5068674;28;20036;-90
2021/07/09 06:33:49;;;;;;;0.00;0.00;;;21.50;99.90;;;;;;5069327;28;20051;-89
2021/07/09 06:36:15;;;;;;;0.00;0.00;;;22.60;99.90;;;;;;5067540;28;20379;-90
2021/07/09 06:38:40;;;;;;;0.00;0.00;;;22.40;99.90;;;;;;5068478;28;20108;-90
2021/07/09 06:41:06;;;;;;;0.00;0.00;;;21.90;99.90;;;;;;5049227;28;20413;-89
2021/07/09 06:43:32;;;;;;;0.00;0.00;;;21.90;99.90;;;;;;5051504;28;20132;-90
2021/07/09 06:45:58;;;;;;;0.00;0.00;;;21.90;99.90;;;;;;5048832;28;20112;-90
2021/07/09 06:48:24;;;;;;;0.05;0.03;;;22.00;99.90;;;;;;5051096;28;20025;-90
2021/07/09 06:50:49;;;;;;;0.00;0.00;;;23.80;99.90;;;;;;5059958;28;20029;-89
2021/07/09 06:53:15;;;;;;;0.10;0.10;;;24.20;99.90;;;;;;5054847;28;20107;-89
2021/07/09 06:55:42;;;;;;;0.00;0.00;;;23.80;99.90;;;;;;5051009;28;20465;-90
2021/07/09 06:58:07;;;;;;;0.00;0.00;;;22.80;99.90;;;;;;5065075;28;20397;-89
2021/07/09 07:00:33;;;;;;;0.00;0.00;;;23.10;99.90;;;;;;5046391;28;20025;-88
2021/07/09 07:02:59;;;;;;;0.00;0.00;;;20.60;99.90;;;;;;5055269;28;20585;-90
2021/07/09 07:05:25;;;;;;;0.00;0.00;;;23.20;99.90;;;;;;5055039;28;20108;-89
2021/07/09 07:07:51;;;;;;;0.00;0.00;;;22.70;99.90;;;;;;5051828;28;20036;-88
2021/07/09 07:10:17;;;;;;;0.00;0.00;;;23.20;99.90;;;;;;5058129;28;20414;-88
2021/07/09 07:12:45;;;;;;;0.00;0.00;;;22.80;99.90;;;;;;5061438;28;20032;-87
2021/07/09 07:15:11;;;;;;;0.10;0.05;;;23.10;99.90;;;;;;5065935;28;20120;-87
2021/07/09 07:17:37;;;;;;;0.00;0.00;;;23.00;99.90;;;;;;5067163;28;20078;-87
2021/07/09 07:20:05;;;;;;;0.00;0.00;;;23.80;99.90;;;;;;5067656;28;20020;-87
2021/07/09 07:22:30;;;;;;;0.00;0.00;;;23.80;99.90;;;;;;5067495;28;20078;-87
2021/07/09 07:24:56;;;;;;;0.00;0.00;;;24.10;99.90;;;;;;5068703;28;20033;-88
2021/07/09 07:27:24;;;;;;;0.15;0.10;;;23.30;99.90;;;;;;5069962;28;20038;-87
2021/07/09 07:29:51;;;;;;;0.00;0.00;;;23.10;99.90;;;;;;5072258;28;20021;-88
2021/07/09 07:32:17;;;;;;;0.03;0.03;;;24.30;99.90;;;;;;5072418;28;20067;-88
2021/07/09 07:34:43;;;;;;;0.00;0.00;;;25.20;99.90;;;;;;5070712;28;20052;-88
2021/07/09 07:37:09;;;;;;;0.70;0.10;;;25.30;99.90;;;;;;5072372;28;20123;-88
2021/07/09 07:39:37;;;;;;;;;;;25.60;99.90;;;;;;5072016;28;20056;-88
2021/07/09 07:42:04;;;;;;;0.00;0.00;;;26.20;99.90;;;;;;5072128;28;20343;-87
2021/07/09 07:44:30;;;;;;;0.43;0.43;;;25.60;96.90;;;;;;5072045;28;20082;-88
2021/07/09 07:46:57;;;;;;;0.30;0.10;;;26.50;97.80;;;;;;5052897;28;20033;-88
2021/07/09 07:49:23;;;;;;;0.00;0.00;;;27.00;97.10;;;;;;5050564;28;20410;-88
2021/07/09 07:51:53;;;;;;;0.20;0.20;;;26.80;96.20;;;;;;5050068;28;20494;-88
2021/07/09 07:54:19;;;;;;;0.00;0.00;;;26.80;95.50;;;;;;5052006;28;20025;-89
2021/07/09 07:56:45;;;;;;;0.00;0.00;;;26.80;94.20;;;;;;5051505;28;20017;-88
2021/07/09 07:59:12;;;;;;;0.03;0.00;;;27.30;93.10;;;;;;5051646;28;20040;-88
2021/07/09 08:01:38;;;;;;;0.00;0.00;;;27.30;95.70;;;;;;5051382;28;20082;-88
2021/07/09 08:04:04;;;;;;;0.00;0.00;;;29.50;92.30;;;;;;5051426;28;20094;-88
2021/07/09 08:06:31;;;;;;;0.00;0.00;;;29.10;93.60;;;;;;5050037;28;20573;-88
2021/07/09 08:08:58;;;;;;;0.00;0.00;;;28.30;92.10;;;;;;5049832;28;20033;-88
2021/07/09 08:11:24;;;;;;;0.10;0.10;;;28.30;88.20;;;;;;5051038;28;20108;-88
2021/07/09 08:13:50;;;;;;;;;;;28.70;90.50;;;;;;5051322;28;20028;-88
2021/07/09 08:16:16;;;;;;;0.00;0.00;;;29.20;87.80;;;;;;5050917;28;19922;-88
2021/07/09 08:18:42;;;;;;;0.22;0.22;;;29.90;76.10;;;;;;5050851;28;20133;-88
2021/07/09 08:21:08;;;;;;;;;;;31.00;74.10;;;;;;5051434;28;20104;-88
2021/07/09 08:23:35;;;;;;;0.00;0.00;;;31.80;76.70;;;;;;5050952;28;20289;-88
2021/07/09 08:26:01;;;;;;;0.00;0.00;;;30.50;70.30;;;;;;5049136;28;20029;-88
2021/07/09 08:28:27;;;;;;;0.00;0.00;;;32.90;67.30;;;;;;5050853;28;20035;-88
2021/07/09 08:30:54;;;;;;;0.00;0.00;;;31.60;67.60;;;;;;5050587;28;20029;-88
2021/07/09 08:33:20;;;;;;;0.10;0.10;;;31.50;68.60;;;;;;5050252;28;20585;-88
2021/07/09 08:35:46;;;;;;;0.00;0.00;;;29.80;68.50;;;;;;5050088;28;20107;-88
2021/07/09 08:38:12;;;;;;;0.00;0.00;;;30.70;85.20;;;;;;5049680;28;20052;-88
2021/07/09 08:40:37;;;;;;;;;;;32.30;68.60;;;;;;5050962;28;20048;-89
2021/07/09 08:43:04;;;;;;;0.22;0.10;;;31.50;63.80;;;;;;5049675;28;19921;-89
2021/07/09 08:45:30;;;;;;;0.00;0.00;;;33.60;62.20;;;;;;5050156;28;20029;-89
2021/07/09 08:47:55;;;;;;;;;;;32.00;65.50;;;;;;5050734;28;20027;-89
2021/07/09 08:50:21;;;;;;;0.00;0.00;;;31.40;61.40;;;;;;5050408;28;19950;-89
2021/07/09 08:52:48;;;;;;;0.05;0.05;;;32.60;53.10;;;;;;5048764;28;20111;-90
2021/07/09 08:55:14;;;;;;;0.20;0.20;;;34.90;47.60;;;;;;5050147;28;20059;-89
2021/07/09 08:57:41;;;;;;;0.05;0.03;;;32.00;51.70;;;;;;5050015;28;20037;-89
2021/07/09 09:00:27;;;;;;;0.00;0.00;;;36.30;46.60;;;;;;5049985;28;20018;-89
2021/07/09 09:02:55;;;;;;;0.00;0.00;;;38.20;40.40;;;;;;5067030;28;20055;-89
2021/07/09 09:05:23;;;;;;;0.00;0.00;;;33.90;41.50;;;;;;5070063;28;20052;-89
2021/07/09 09:07:59;;;;;;;0.00;0.00;;;36.20;41.20;;;;;;5069794;28;20441;-89
2021/07/09 09:10:52;;;;;;;;;;;33.10;43.70;;;;;;5069711;28;20020;-89
2021/07/09 09:13:19;;;;;;;0.00;0.00;;;28.80;56.00;;;;;;5048473;28;19912;-89
2021/07/09 09:16:00;;;;;;;0.00;0.00;;;27.30;57.30;;;;;;5049790;28;20112;-88
2021/07/09 09:18:29;;;;;;;0.00;0.00;;;26.10;60.40;;;;;;5048532;28;20088;-89
2021/07/09 09:21:01;;;;;;;1.75;0.88;;;24.80;63.10;;;;;;5048247;28;20636;-88
2021/07/09 09:23:29;;;;;;;0.00;0.00;;;24.50;68.00;;;;;;5049551;28;20028;-88
2021/07/09 09:25:55;;;;;;;0.20;0.20;;;27.20;66.00;;;;;;5049326;28;20024;-89
2021/07/09 09:28:21;;;;;;;0.00;0.00;;;33.80;62.60;;;;;;5049853;28;20027;-89
2021/07/09 09:30:51;;;;;;;0.00;0.00;;;36.60;43.50;;;;;;5048503;28;20111;-89
2021/07/09 09:33:17;;;;;;;0.00;0.00;;;35.70;37.30;;;;;;5049280;28;20513;-89
2021/07/09 09:35:44;;;;;;;;;;;34.90;36.70;;;;;;5050191;28;20037;-89
2021/07/09 09:38:13;;;;;;;0.00;0.00;;;33.30;38.30;;;;;;5049245;28;19952;-89
2021/07/09 09:40:41;;;;;;;0.38;0.17;;;35.90;32.50;;;;;;5048170;28;20119;-87
2021/07/09 09:43:09;;;;;;;0.00;0.00;;;34.90;31.00;;;;;;5049086;28;20056;-87
2021/07/09 09:45:36;;;;;;;0.00;0.00;;;33.40;33.90;;;;;;5049847;28;20036;-89
2021/07/09 09:48:07;;;;;;;0.05;0.05;;;35.00;36.80;;;;;;5049084;28;20028;-90
2021/07/09 09:50:48;;;;;;;0.00;0.00;;;36.90;33.70;;;;;;5049613;28;20397;-90
2021/07/09 09:53:14;;;;;;;0.28;0.20;;;35.60;33.40;;;;;;5049111;28;20032;-90
2021/07/09 09:55:40;;;;;;;;;;;36.50;32.20;;;;;;5049935;28;20035;-90
2021/07/09 09:58:12;;;;;;;0.00;0.00;;;38.00;29.90;;;;;;5048995;28;19908;-90
2021/07/09 10:00:39;;;;;;;0.00;0.00;;;36.10;28.60;;;;;;5047950;28;20017;-90
2021/07/09 10:03:06;;;;;;;0.10;0.03;;;37.10;30.20;;;;;;5049085;28;20520;-90
2021/07/09 10:05:43;;;;;;;0.10;0.10;;;39.20;24.60;;;;;;5049193;28;20051;-90
2021/07/09 10:08:15;;;;;;;0.00;0.00;;;36.80;30.10;;;;;;5048915;28;20580;-90
2021/07/09 10:10:42;;;;;;;0.00;0.00;;;33.40;33.80;;;;;;5047876;28;20039;-90
2021/07/09 10:13:10;;;;;;;0.10;0.10;;;35.40;28.30;;;;;;5047223;28;20514;-90
2021/07/09 10:15:39;;;;;;;0.00;0.00;;;37.70;23.80;;;;;;5047766;28;20605;-90
2021/07/09 10:18:14;;;;;;;0.00;0.00;;;40.60;18.80;;;;;;5049017;28;20032;-90
2021/07/09 10:20:44;;;;;;;0.00;0.00;;;32.20;27.00;;;;;;5049174;28;20029;-90
2021/07/09 10:23:19;;;;;;;0.00;0.00;;;30.40;37.90;;;;;;5048814;28;20048;-90
2021/07/09 10:25:47;;;;;;;0.00;0.00;;;29.70;37.40;;;;;;5049236;28;20032;-90
2021/07/09 10:28:20;;;;;;;0.00;0.00;;;34.70;37.40;;;;;;5047500;28;20048;-90
2021/07/09 10:30:46;;;;;;;0.00;0.00;;;31.10;45.90;;;;;;5049177;28;20394;-90
2021/07/09 10:33:31;;;;;;;0.08;0.08;;;34.90;30.60;;;;;;5048659;28;20025;-90
2021/07/09 10:35:58;;;;;;;0.00;0.00;;;30.90;30.80;;;;;;5049086;28;20025;-90
2021/07/09 10:38:24;;;;;;;0.03;0.03;;;27.00;41.10;;;;;;5048640;28;20024;-89
2021/07/09 10:40:51;;;;;;;0.00;0.00;;;26.00;44.40;;;;;;5048862;28;20025;-90
2021/07/09 10:43:18;;;;;;;0.00;0.00;;;25.90;46.30;;;;;;5048556;28;20048;-89
2021/07/09 10:45:45;;;;;;;0.00;0.00;;;24.60;49.20;;;;;;5048772;28;20548;-89
2021/07/09 10:48:16;;;;;;;0.00;0.00;;;24.40;51.70;;;;;;5048467;28;20021;-89
2021/07/09 10:50:52;;;;;;;0.00;0.00;;;25.10;51.20;;;;;;5047276;28;20063;-88
2021/07/09 10:53:22;;;;;;;0.10;0.10;;;25.50;50.60;;;;;;5048254;28;20039;-88
2021/07/09 10:55:52;;;;;;;0.00;0.00;;;25.50;49.70;;;;;;5048717;28;20027;-87
2021/07/09 10:58:27;;;;;;;0.00;0.00;;;24.90;51.10;;;;;;5046992;28;20021;-87
2021/07/09 11:01:16;;;;;;;0.08;0.08;;;25.20;52.00;;;;;;5049628;28;20490;-86
2021/07/09 11:03:57;;;;;;;0.10;0.10;;;25.30;53.10;;;;;;5051111;28;20033;-88
2021/07/09 11:06:31;;;;;;;0.10;0.00;;;25.40;51.90;;;;;;5052168;28;20024;-87
2021/07/09 11:09:06;;;;;;;0.00;0.00;;;26.50;50.80;;;;;;5052095;28;20029;-87
2021/07/09 11:11:36;;;;;;;0.00;0.00;;;26.30;49.30;;;;;;5062101;28;20063;-87
2021/07/09 11:14:12;;;;;;;0.00;0.00;;;25.30;53.30;;;;;;5072362;28;20378;-86
2021/07/09 11:16:38;;;;;;;;;;;25.20;53.70;;;;;;5072451;28;20020;-87
2021/07/09 11:19:11;;;;;;;0.00;0.00;;;24.90;53.40;;;;;;5071966;28;19915;-86
2021/07/09 11:21:36;;;;;;;0.25;0.20;;;25.60;56.10;;;;;;5070512;28;20842;-88
2021/07/09 11:24:23;;;;;;;0.00;0.00;;;26.00;54.50;;;;;;5072354;28;20115;-88
2021/07/09 11:26:50;;;;;;;0.20;0.17;;;25.80;54.30;;;;;;5070536;28;20790;-87
2021/07/09 11:29:23;;;;;;;0.00;0.00;;;26.30;52.20;;;;;;5071947;28;20863;-87
2021/07/09 11:31:51;;;;;;;0.00;0.00;;;26.50;51.70;;;;;;5071950;28;20074;-87
2021/07/09 11:34:18;;;;;;;0.00;0.00;;;26.80;50.60;;;;;;5071879;28;20024;-86
2021/07/09 11:37:11;;;;;;;0.00;0.00;;;26.30;53.10;;;;;;5071597;28;20070;-87
2021/07/09 11:39:49;;;;;;;0.00;0.00;;;26.50;52.30;;;;;;5071560;28;20059;-87
2021/07/09 11:42:22;;;;;;;0.20;0.20;;;27.30;52.20;;;;;;5071481;28;20040;-87
2021/07/09 11:44:59;;;;;;;0.00;0.00;;;27.70;50.40;;;;;;5070940;28;20543;-82
2021/07/09 11:47:32;;;;;;;0.00;0.00;;;27.50;48.80;;;;;;5070740;28;20029;-83
2021/07/09 11:50:00;;;;;;;0.00;0.00;;;27.50;50.50;;;;;;5070580;28;20115;-82
2021/07/09 11:52:34;;;;;;;0.00;0.00;;;27.90;50.10;;;;;;5070105;28;20028;-81
2021/07/09 11:55:06;;;;;;;0.00;0.00;;;26.40;52.80;;;;;;5070632;28;20027;-81
2021/07/09 11:57:35;;;;;;;0.10;0.05;;;25.90;52.70;;;;;;5070281;28;20108;-81
2021/07/09 12:00:08;;;;;;;0.00;0.00;;;25.40;53.90;;;;;;5068099;28;20515;-80
2021/07/09 12:02:34;;;;;;;0.00;0.00;;;25.00;55.50;;;;;;5069333;28;20033;-81
2021/07/09 12:05:08;;;;;;;0.47;0.47;;;24.40;58.10;;;;;;5069365;28;20566;-82
2021/07/09 12:07:38;;;;;;;0.00;0.00;;;25.20;57.80;;;;;;5070824;28;20120;-83
2021/07/09 12:10:21;;;;;;;0.03;0.03;;;24.50;57.90;;;;;;5071189;28;20025;-82
2021/07/09 12:12:58;;;;;;;0.08;0.08;;;24.10;57.00;;;;;;5070493;28;20505;-82
2021/07/09 12:15:30;;;;;;;0.08;0.08;;;24.20;57.70;;;;;;5070951;28;20035;-85
2021/07/09 12:18:05;;;;;;;0.10;0.00;;;24.90;58.20;;;;;;5069804;28;20090;-84
2021/07/09 12:20:32;;;;;;;0.00;0.00;;;24.60;56.10;;;;;;5068927;28;20058;-82
2021/07/09 12:22:59;;;;;;;0.00;0.00;;;24.40;65.70;;;;;;5070453;28;20025;-81
2021/07/09 12:25:28;;;;;;;0.00;0.00;;;24.10;66.90;;;;;;5067493;28;20417;-81
2021/07/09 12:28:00;;;;;;;0.00;0.00;;;24.60;60.80;;;;;;5068376;28;20031;-80
2021/07/09 12:30:32;;;;;;;0.08;0.08;;;24.30;61.40;;;;;;5068346;28;20028;-80
2021/07/09 12:33:03;;;;;;;0.00;0.00;;;23.70;61.90;;;;;;5068180;28;20032;-80
2021/07/09 12:35:31;;;;;;;0.00;0.00;;;23.30;76.70;;;;;;5068420;28;20021;-79
2021/07/09 12:38:01;;;;;;;0.08;0.08;;;23.30;65.50;;;;;;5068409;28;20056;-80
2021/07/09 12:40:32;;;;;;;0.05;0.00;;;23.40;67.40;;;;;;5068176;28;20012;-80
2021/07/09 12:43:11;;;;;;;0.20;0.20;;;23.40;66.00;;;;;;5066847;28;20083;-80
2021/07/09 12:45:37;;;;;;;10.60;0.32;;;23.40;65.00;;;;;;5068397;28;20149;-81
2021/07/09 12:48:03;;;;;;;0.00;0.00;;;22.90;65.60;;;;;;5067133;28;20032;-80
2021/07/09 12:50:33;;;;;;;0.00;0.00;;;22.80;64.10;;;;;;5068143;28;20093;-80
2021/07/09 12:53:11;;;;;;;0.00;0.00;;;23.40;64.80;;;;;;5068227;28;20109;-80